Time;durP1;ratioP1;P1;durP2;ratioP2;P2;SDS_P1;SDS_P2;PMS_P1;PMS_P2;Temp;Humidity;BMP_temperature;BMP_pressure;BME280_temperature;BME280_humidity;BME280_pressure;Samples;Min_cycle;Max_cycle;Signal;HPM_P1;HPM_P2
2022/02/08 00:02:00;;;;;;;13.45;4.72;;;;;;;5.37;99.66;102498.22;10460831;28;20049;-51
2022/02/08 00:07:05;;;;;;;15.00;5.47;;;;;;;5.38;100.00;102499.13;10460315;28;20048;-52
2022/02/08 00:12:08;;;;;;;19.52;6.00;;;;;;;5.39;100.00;102508.63;10459045;28;20044;-56
2022/02/08 00:17:10;;;;;;;19.10;6.53;;;;;;;5.39;100.00;102504.28;10459886;28;20429;-56
2022/02/08 00:22:12;;;;;;;26.50;6.65;;;;;;;5.22;100.00;102501.81;10460174;28;20053;-53
2022/02/08 00:27:15;;;;;;;31.88;8.45;;;;;;;5.19;100.00;102486.28;10459676;28;20068;-55
2022/02/08 00:32:17;;;;;;;23.27;10.00;;;;;;;5.26;100.00;102478.41;10459405;28;20048;-54
2022/02/08 00:37:19;;;;;;;34.88;9.73;;;;;;;5.32;100.00;102483.56;10459135;28;20052;-51
2022/02/08 00:42:24;;;;;;;25.42;6.95;;;;;;;5.33;100.00;102483.56;10458925;28;20059;-53
2022/02/08 00:47:34;;;;;;;20.83;7.80;;;;;;;5.44;100.00;102483.47;10458115;28;20410;-56
2022/02/08 00:52:38;;;;;;;26.90;11.50;;;;;;;5.47;100.00;102478.25;10458238;28;20499;-55
2022/02/08 00:57:40;;;;;;;32.22;9.68;;;;;;;5.47;100.00;102477.38;10457920;28;20067;-54
2022/02/08 01:02:42;;;;;;;29.20;12.18;;;;;;;5.58;100.00;102481.59;10458136;28;20045;-56
2022/02/08 01:07:45;;;;;;;34.92;11.63;;;;;;;5.63;100.00;102480.69;10457925;28;20052;-57
2022/02/08 01:12:48;;;;;;;22.73;11.10;;;;;;;5.70;100.00;102488.41;10458206;28;20119;-52
2022/02/08 01:17:56;;;;;;;29.75;12.32;;;;;;;5.65;100.00;102485.00;10457539;28;20055;-52
2022/02/08 01:23:02;;;;;;;40.83;14.88;;;;;;;5.62;100.00;102484.19;10457818;28;20051;-49
2022/02/08 01:39:14;;;;;;;39.88;17.55;;;;;;;5.66;100.00;102499.72;10457302;28;20056;-54
2022/02/08 01:44:38;;;;;;;32.72;16.83;;;;;;;5.64;100.00;102495.41;10456782;28;20397;-53
2022/02/08 01:50:23;;;;;;;35.28;17.65;;;;;;;5.82;100.00;102504.78;10456554;28;20436;-56
2022/02/08 01:55:08;;;;;;;32.40;19.08;;;;;;;5.72;100.00;102496.22;10456064;28;20052;-55
2022/02/08 02:00:11;;;;;;;37.30;22.83;;;;;;;5.71;100.00;102491.88;10456546;28;20055;-54
2022/02/08 02:05:14;;;;;;;47.55;25.15;;;;;;;5.77;100.00;102481.44;10456231;28;20044;-52
2022/02/08 02:10:20;;;;;;;38.55;20.33;;;;;;;5.81;100.00;102479.66;10456307;28;20077;-53
2022/02/08 02:15:22;;;;;;;37.55;20.77;;;;;;;5.87;100.00;102477.84;10456065;28;20504;-52
2022/02/08 02:20:25;;;;;;;40.55;24.48;;;;;;;6.03;100.00;102475.94;10456045;28;20045;-56
2022/02/08 02:25:29;;;;;;;41.35;24.23;;;;;;;6.01;100.00;102474.28;10455783;28;20477;-55
2022/02/08 02:30:33;;;;;;;42.00;25.48;;;;;;;6.04;100.00;102467.28;10455810;28;20057;-50
2022/02/08 02:35:36;;;;;;;42.30;27.98;;;;;;;6.16;100.00;102453.28;10456156;28;20049;-50
2022/02/08 02:40:41;;;;;;;61.40;31.10;;;;;;;6.17;100.00;102461.94;10455730;28;20045;-53
2022/02/08 02:45:43;;;;;;;43.55;28.15;;;;;;;6.30;100.00;102463.50;10455272;28;20064;-55
2022/02/08 02:50:53;;;;;;;43.78;26.17;;;;;;;6.22;100.00;102457.53;10455155;28;20512;-52
2022/02/08 02:55:55;;;;;;;48.42;28.40;;;;;;;6.32;100.00;102461.72;10455350;28;20128;-51
2022/02/08 03:01:16;;;;;;;56.42;30.33;;;;;;;6.36;100.00;102459.97;10455160;28;20512;-58
2022/02/08 03:22:21;;;;;;;50.70;30.50;;;;;;;6.65;100.00;102472.56;10462141;28;20508;-55
2022/02/08 03:27:23;;;;;;;57.25;32.05;;;;;;;6.69;100.00;102479.44;10462171;28;20049;-56
2022/02/08 03:32:26;;;;;;;50.50;29.45;;;;;;;6.71;100.00;102480.31;10462138;28;20049;-54
2022/02/08 03:37:31;;;;;;;54.90;32.33;;;;;;;6.80;100.00;102489.72;10461500;28;20064;-57
2022/02/08 03:42:45;;;;;;;54.80;32.33;;;;;;;6.87;100.00;102492.19;10461744;28;20040;-56
2022/02/08 03:47:48;;;;;;;42.58;27.40;;;;;;;6.94;100.00;102473.88;10461205;28;20053;-52
2022/02/08 03:52:50;;;;;;;43.55;30.17;;;;;;;6.83;100.00;102474.91;10461369;28;20052;-55
2022/02/08 03:57:52;;;;;;;34.28;22.90;;;;;;;7.02;100.00;102477.25;10460620;28;20485;-54
2022/02/08 04:02:57;;;;;;;47.78;28.90;;;;;;;7.02;100.00;102490.25;10460596;28;20056;-54
2022/02/08 04:08:04;;;;;;;41.58;26.35;;;;;;;7.08;100.00;102471.94;10460115;28;20056;-55
2022/02/08 04:13:15;;;;;;;38.35;24.80;;;;;;;7.10;100.00;102471.91;10459383;28;20049;-54
2022/02/08 04:49:36;;;;;;;29.98;22.23;;;;;;;7.26;100.00;102457.72;10459272;28;20049;-55
2022/02/08 05:47:16;;;;;;;29.92;18.20;;;;;;;7.41;100.00;102454.00;10457812;28;20057;-54
2022/02/08 05:52:44;;;;;;;30.33;20.13;;;;;;;7.38;100.00;102447.13;10456478;28;20477;-55
2022/02/08 05:57:44;;;;;;;26.30;17.52;;;;;;;7.40;100.00;102445.34;10456435;28;20489;-54
2022/02/08 06:02:48;;;;;;;29.80;20.27;;;;;;;7.31;100.00;102455.91;10456413;28;20049;-55
2022/02/08 06:07:51;;;;;;;29.90;21.63;;;;;;;7.48;100.00;102457.38;10456990;28;20045;-53
2022/02/08 06:12:55;;;;;;;23.90;19.05;;;;;;;7.35;100.00;102447.16;10456286;28;20049;-56
2022/02/08 06:17:58;;;;;;;25.13;20.13;;;;;;;7.39;100.00;102450.56;10456743;28;20059;-54
2022/02/08 06:23:03;;;;;;;31.05;21.70;;;;;;;7.38;100.00;102444.50;10455941;28;20427;-56
2022/02/08 06:28:06;;;;;;;30.88;21.80;;;;;;;7.34;100.00;102450.66;10456086;28;20059;-56
2022/02/08 06:33:08;;;;;;;32.45;22.83;;;;;;;7.37;100.00;102442.78;10455538;28;20045;-58
2022/02/08 06:38:13;;;;;;;30.50;22.23;;;;;;;7.20;100.00;102443.06;10455713;28;20060;-58
2022/02/08 06:43:17;;;;;;;32.13;23.02;;;;;;;7.15;100.00;102463.13;10455506;28;20053;-56
2022/02/08 06:48:19;;;;;;;28.88;21.38;;;;;;;7.23;100.00;102463.88;10463028;28;20390;-55
2022/02/08 06:53:21;;;;;;;28.85;21.23;;;;;;;7.28;100.00;102469.00;10462983;28;20044;-56
2022/02/08 06:58:30;;;;;;;36.20;23.25;;;;;;;7.21;100.00;102477.78;10462909;28;20499;-52
2022/02/08 07:03:32;;;;;;;32.60;22.63;;;;;;;7.21;100.00;102491.69;10462993;28;20045;-54
2022/02/08 07:08:37;;;;;;;32.30;22.60;;;;;;;7.27;100.00;102488.13;10462204;28;20080;-55
2022/02/08 07:13:41;;;;;;;29.80;19.65;;;;;;;7.15;100.00;102497.00;10462754;28;20060;-57
2022/02/08 07:18:43;;;;;;;31.65;21.73;;;;;;;7.20;100.00;102491.72;10462661;28;20057;-52
2022/02/08 07:23:46;;;;;;;35.53;23.17;;;;;;;7.21;100.00;102496.91;10462320;28;20048;-54
2022/02/08 07:28:48;;;;;;;35.10;21.75;;;;;;;7.35;100.00;102509.69;10461790;28;20056;-55
2022/02/08 07:34:00;;;;;;;35.38;24.35;;;;;;;7.41;100.00;102507.00;10461748;28;20053;-53
2022/02/08 07:39:02;;;;;;;34.42;21.73;;;;;;;7.44;100.00;102513.91;10461610;28;20059;-58
2022/02/08 07:44:09;;;;;;;31.02;22.83;;;;;;;7.46;100.00;102508.66;10461547;28;20049;-57
2022/02/08 07:49:13;;;;;;;28.70;20.08;;;;;;;7.69;100.00;102510.88;10461495;28;20063;-57
2022/02/08 07:54:15;;;;;;;28.80;18.90;;;;;;;7.68;100.00;102517.81;10461253;28;20049;-56
2022/02/08 07:59:23;;;;;;;28.98;19.90;;;;;;;7.74;100.00;102519.47;10459229;28;20045;-54
2022/02/08 08:04:25;;;;;;;28.73;20.08;;;;;;;7.76;100.00;102513.31;10459094;28;20045;-57
2022/02/08 08:09:30;;;;;;;29.67;19.45;;;;;;;7.80;100.00;102524.56;10461206;28;20053;-56
2022/02/08 08:14:33;;;;;;;25.83;17.70;;;;;;;7.86;100.00;102523.59;10459926;28;20067;-56
2022/02/08 08:19:37;;;;;;;27.00;17.10;;;;;;;7.92;100.00;102523.50;10460195;28;20045;-54
2022/02/08 08:24:39;;;;;;;24.63;16.27;;;;;;;7.92;100.00;102523.50;10458440;28;20493;-56
2022/02/08 08:29:42;;;;;;;22.75;16.58;;;;;;;7.94;100.00;102527.78;10459267;28;20045;-58
2022/02/08 08:34:44;;;;;;;29.77;16.38;;;;;;;8.18;100.00;102523.84;10459220;28;20052;-56
2022/02/08 08:39:50;;;;;;;23.48;14.70;;;;;;;8.18;100.00;102525.59;10458920;28;20503;-56
2022/02/08 08:48:26;;;;;;;19.73;14.43;;;;;;;8.27;100.00;102516.72;10458094;28;20059;-55
2022/02/08 08:51:05;;;;;;;22.80;13.60;;;;;;;8.29;100.00;102531.47;10458785;28;20107;-54
2022/02/08 08:55:55;;;;;;;20.05;12.02;;;;;;;8.30;100.00;102533.16;10458403;28;20066;-56
2022/02/08 09:00:59;;;;;;;15.77;11.23;;;;;;;8.48;100.00;102537.19;10458477;28;20053;-56
2022/02/08 09:06:02;;;;;;;21.45;10.73;;;;;;;8.48;100.00;102531.13;10458040;28;20052;-57
2022/02/08 09:11:21;;;;;;;18.20;10.93;;;;;;;8.62;100.00;102546.50;10456912;28;20053;-53
2022/02/08 09:16:45;;;;;;;15.02;8.05;;;;;;;8.65;100.00;102538.59;10457728;28;20417;-53
2022/02/08 09:22:22;;;;;;;14.68;8.35;;;;;;;8.83;100.00;102539.97;10457726;28;20092;-54
2022/02/08 09:37:47;;;;;;;16.65;7.80;;;;;;;9.23;100.00;102528.56;10456817;28;20057;-56
2022/02/08 09:42:52;;;;;;;13.77;6.70;;;;;;;9.29;100.00;102518.81;10456849;28;20049;-55
2022/02/08 09:47:59;;;;;;;10.85;6.00;;;;;;;9.94;100.00;102509.31;10455949;28;20064;-56
2022/02/08 09:53:03;;;;;;;13.27;6.47;;;;;;;10.38;100.00;102501.97;10456593;28;20059;-57
2022/02/08 09:58:06;;;;;;;9.65;5.50;;;;;;;10.45;100.00;102504.44;10456120;28;20492;-58
2022/02/08 10:03:12;;;;;;;14.43;4.93;;;;;;;10.11;100.00;102505.38;10456626;28;20052;-57
2022/02/08 10:08:15;;;;;;;9.93;5.28;;;;;;;10.26;100.00;102502.31;10456283;28;20077;-57
2022/02/08 10:24:02;;;;;;;9.85;4.72;;;;;;;10.77;99.83;102520.00;10464568;28;20048;-54
2022/02/08 10:40:03;;;;;;;10.45;4.63;;;;;;;10.44;100.00;102534.13;10463595;28;20049;-54
2022/02/08 10:45:18;;;;;;;10.15;3.97;;;;;;;10.60;99.19;102544.09;10462413;28;20041;-58
2022/02/08 10:50:22;;;;;;;9.05;4.05;;;;;;;10.40;98.28;102547.31;10463689;28;20053;-56
2022/02/08 10:55:49;;;;;;;12.75;5.38;;;;;;;10.45;99.11;102541.94;10464036;28;20060;-56
2022/02/08 11:06:17;;;;;;;12.02;3.90;;;;;;;10.39;98.81;102536.91;10463617;28;20056;-58
2022/02/08 11:11:35;;;;;;;11.82;3.38;;;;;;;10.33;98.06;102530.06;10461890;28;20052;-56
2022/02/08 11:22:03;;;;;;;16.50;3.60;;;;;;;10.47;94.05;102515.72;10462061;28;20053;-58
2022/02/08 11:27:12;;;;;;;4.60;1.50;;;;;;;10.48;92.19;102518.28;10462590;28;20303;-56
2022/02/08 11:54:00;;;;;;;11.25;2.15;;;;;;;11.24;86.01;102497.59;10461114;28;20384;-53
2022/02/08 12:04:20;;;;;;;6.13;1.80;;;;;;;10.90;88.37;102485.59;10461032;28;20045;-55
2022/02/08 12:09:36;;;;;;;5.88;1.40;;;;;;;11.17;87.49;102493.47;10460840;28;20053;-55
2022/02/08 12:31:26;;;;;;;5.43;1.50;;;;;;;11.03;87.51;102501.75;10459437;28;20044;-58
2022/02/08 12:36:45;;;;;;;7.10;2.10;;;;;;;11.04;86.91;102500.88;10459453;28;20053;-56
2022/02/08 12:53:39;;;;;;;7.20;1.77;;;;;;;11.00;87.77;102497.50;10469125;28;20045;-57
2022/02/08 12:58:27;;;;;;;5.63;1.80;;;;;;;10.87;88.72;102497.00;10455081;28;20128;-55
2022/02/08 14:24:14;;;;;;;12.45;1.35;;;;;;;10.53;91.10;102533.88;10455015;28;20049;-55
2022/02/08 15:11:44;;;;;;;4.32;1.27;;;;;;;10.48;89.02;102535.78;10462039;28;20056;-56
2022/02/08 15:16:47;;;;;;;7.55;1.98;;;;;;;10.59;89.21;102534.56;10462604;28;20049;-55
2022/02/08 15:21:49;;;;;;;7.03;1.60;;;;;;;10.57;89.58;102538.09;10462392;28;20055;-57
2022/02/08 15:26:53;;;;;;;7.57;1.60;;;;;;;10.56;90.52;102544.25;10462240;28;20056;-59
2022/02/08 15:31:56;;;;;;;10.27;1.90;;;;;;;10.52;89.40;102543.50;10461935;28;20481;-57
2022/02/08 15:36:58;;;;;;;10.93;1.55;;;;;;;10.45;90.12;102541.09;10461761;28;20095;-56
2022/02/08 15:42:00;;;;;;;7.43;1.50;;;;;;;10.49;90.91;102540.09;10462835;28;20053;-54
2022/02/08 15:47:10;;;;;;;11.70;1.77;;;;;;;10.33;91.54;102535.28;10461361;28;20060;-58
2022/02/08 15:52:26;;;;;;;7.80;2.15;;;;;;;10.50;90.12;102547.91;10461649;28;20044;-58
2022/02/08 15:57:59;;;;;;;4.65;1.77;;;;;;;10.42;91.81;102560.34;10460640;28;20409;-56
2022/02/08 16:08:25;;;;;;;8.55;1.80;;;;;;;10.22;92.99;102566.13;10460808;28;20044;-57
2022/02/08 16:13:43;;;;;;;9.85;1.83;;;;;;;10.24;92.89;102566.97;10460899;28;20041;-56
2022/02/08 16:19:03;;;;;;;9.45;2.50;;;;;;;10.18;93.42;102564.50;10459356;28;20052;-56
2022/02/08 16:24:28;;;;;;;17.70;2.10;;;;;;;10.00;95.01;102564.09;10460173;28;20049;-62
2022/02/08 16:56:09;;;;;;;5.90;1.95;;;;;;;10.01;95.73;102563.19;10416402;28;20056;-58
2022/02/08 17:01:17;;;;;;;10.23;3.22;;;;;;;10.02;97.00;102567.53;10415915;28;20053;-56
2022/02/08 17:06:25;;;;;;;11.52;4.20;;;;;;;9.86;98.13;102579.28;10416031;28;20099;-57
2022/02/08 17:11:37;;;;;;;6.47;4.03;;;;;;;9.79;99.02;102575.13;10415457;28;20398;-58
2022/02/08 17:16:55;;;;;;;7.35;5.65;;;;;;;9.71;99.83;102588.38;10415651;28;20076;-58
2022/02/08 17:44:58;;;;;;;11.10;6.82;;;;;;;9.69;99.74;102608.50;10414651;28;20395;-58
2022/02/08 17:48:47;;;;;;;12.52;5.43;;;;;;;9.82;98.81;102625.63;10414118;28;20061;-57
2022/02/08 17:53:49;;;;;;;15.18;6.13;;;;;;;9.80;99.22;102627.41;10414216;28;20050;-59
2022/02/08 17:58:52;;;;;;;12.55;4.80;;;;;;;9.81;99.74;102623.88;10414959;28;20060;-57
2022/02/08 18:03:54;;;;;;;13.27;6.00;;;;;;;9.83;98.54;102627.34;10415085;28;20067;-58
2022/02/08 18:08:57;;;;;;;8.13;4.03;;;;;;;9.72;99.79;102613.66;10415479;28;20050;-56
2022/02/08 18:13:59;;;;;;;7.63;4.40;;;;;;;9.70;99.99;102615.47;10414599;28;20498;-57
2022/02/08 18:19:10;;;;;;;10.57;5.38;;;;;;;9.67;99.55;102605.91;10415323;28;20050;-59
2022/02/08 19:12:09;;;;;;;12.88;8.60;;;;;;;9.43;100.00;102619.56;10421337;28;20045;-58
2022/02/08 19:22:33;;;;;;;18.45;10.02;;;;;;;9.53;99.16;102612.38;10421719;28;20219;-58
2022/02/08 19:27:37;;;;;;;12.27;8.40;;;;;;;9.43;99.44;102596.94;10421035;28;20050;-57
2022/02/08 19:32:40;;;;;;;14.98;8.43;;;;;;;9.31;98.56;102605.03;10435811;28;20076;-57
2022/02/08 19:37:46;;;;;;;11.00;8.18;;;;;;;9.32;98.65;102613.75;10420948;28;20053;-57
2022/02/08 19:42:48;;;;;;;11.48;6.80;;;;;;;9.32;99.42;102614.63;10420444;28;20079;-56
2022/02/08 19:47:51;;;;;;;10.55;7.03;;;;;;;9.22;98.36;102597.44;10420496;28;20072;-57
2022/02/08 19:52:55;;;;;;;11.70;8.25;;;;;;;9.22;99.38;102587.81;10418971;28;20056;-56
2022/02/08 19:57:58;;;;;;;15.00;8.77;;;;;;;9.02;100.00;102600.47;10420114;28;20060;-57
2022/02/08 20:03:03;;;;;;;10.35;8.43;;;;;;;8.99;100.00;102584.88;10419420;28;20041;-58
2022/02/08 20:08:06;;;;;;;8.85;7.20;;;;;;;8.90;100.00;102583.31;10419176;28;20052;-56
2022/02/08 20:13:10;;;;;;;7.95;6.80;;;;;;;8.92;99.34;102592.81;10419682;28;20049;-58
2022/02/08 20:18:12;;;;;;;12.55;7.15;;;;;;;8.90;99.49;102597.25;10419214;28;20049;-57
2022/02/08 20:23:17;;;;;;;12.38;6.50;;;;;;;8.72;100.00;102598.50;10434200;28;20045;-59
2022/02/08 20:28:56;;;;;;;11.90;7.65;;;;;;;8.80;100.00;102600.09;10418590;28;20050;-57
2022/02/08 20:33:49;;;;;;;9.45;7.30;;;;;;;8.77;100.00;102602.75;10418034;28;20068;-58
2022/02/08 20:38:51;;;;;;;10.63;7.50;;;;;;;8.67;100.00;102594.25;10418149;28;20053;-55
2022/02/08 20:43:54;;;;;;;14.02;8.35;;;;;;;8.71;99.64;102603.75;10417773;28;20406;-59
2022/02/08 20:48:56;;;;;;;16.70;8.60;;;;;;;8.66;100.00;102606.47;10418000;28;20136;-55
2022/02/08 20:54:04;;;;;;;18.38;9.57;;;;;;;8.64;100.00;102610.84;10432911;28;20049;-57
2022/02/08 20:59:12;;;;;;;15.23;9.18;;;;;;;8.55;100.00;102613.63;10417809;28;20045;-57
2022/02/08 21:05:05;;;;;;;13.77;9.05;;;;;;;8.59;100.00;102612.72;10417004;28;20045;-58
2022/02/08 21:09:38;;;;;;;15.38;9.55;;;;;;;8.59;100.00;102614.44;10423015;28;20058;-57
2022/02/08 21:14:40;;;;;;;11.70;8.18;;;;;;;8.66;100.00;102613.44;10416482;28;20401;-56
2022/02/08 21:19:43;;;;;;;15.35;9.27;;;;;;;8.72;100.00;102611.56;10416366;28;20409;-54
2022/02/08 21:24:45;;;;;;;11.18;7.03;;;;;;;8.76;100.00;102612.34;10415882;28;20049;-58
2022/02/08 21:56:16;;;;;;;10.63;6.93;;;;;;;8.70;100.00;102588.97;10415310;28;20076;-58
2022/02/08 22:01:19;;;;;;;11.68;7.05;;;;;;;8.73;100.00;102579.31;10415507;28;20136;-57
2022/02/08 22:06:21;;;;;;;12.98;7.00;;;;;;;8.68;100.00;102586.38;10415568;28;20053;-57
2022/02/08 22:17:11;;;;;;;12.05;6.88;;;;;;;8.79;100.00;102583.53;10418873;28;20061;-57
2022/02/08 22:22:24;;;;;;;8.55;6.28;;;;;;;8.66;100.00;102577.72;10424648;28;20084;-56
2022/02/08 22:27:35;;;;;;;11.32;6.35;;;;;;;8.79;100.00;102578.31;10423282;28;20046;-59
2022/02/08 22:32:39;;;;;;;11.85;6.78;;;;;;;8.56;100.00;102571.00;10423317;28;20045;-58
2022/02/08 22:37:49;;;;;;;6.75;6.05;;;;;;;8.64;100.00;102579.53;10422977;28;20049;-54
2022/02/08 22:43:01;;;;;;;12.80;6.70;;;;;;;8.67;100.00;102575.97;10423223;28;20053;-59
2022/02/08 22:48:09;;;;;;;13.43;8.50;;;;;;;8.63;100.00;102562.13;10422490;28;20401;-57
2022/02/08 22:53:11;;;;;;;12.00;7.93;;;;;;;8.65;100.00;102564.72;10422895;28;20054;-56
2022/02/08 22:58:13;;;;;;;9.80;7.93;;;;;;;8.65;100.00;102570.78;10422394;28;20053;-57
2022/02/08 23:03:16;;;;;;;11.25;7.00;;;;;;;8.58;100.00;102569.19;10421885;28;20054;-59
2022/02/08 23:08:18;;;;;;;10.88;7.25;;;;;;;8.66;100.00;102566.44;10422360;28;20045;-57
2022/02/08 23:13:25;;;;;;;17.75;8.95;;;;;;;8.57;100.00;102570.06;10421364;28;20406;-56
2022/02/08 23:39:52;;;;;;;8.45;5.57;;;;;;;8.64;100.00;102573.41;10420499;28;20409;-57
2022/02/08 23:44:54;;;;;;;6.00;5.30;;;;;;;8.61;100.00;102574.38;10420582;28;20049;-58
2022/02/08 23:50:02;;;;;;;6.40;4.85;;;;;;;8.69;100.00;102575.06;10419989;28;20092;-59
2022/02/08 23:55:16;;;;;;;14.70;4.88;;;;;;;8.71;100.00;102572.41;10419602;28;20050;-58
